Time;durP1;ratioP1;P1;durP2;ratioP2;P2;SDS_P1;SDS_P2;PMS_P1;PMS_P2;Temp;Humidity;BMP_temperature;BMP_pressure;BME280_temperature;BME280_humidity;BME280_pressure;Samples;Min_cycle;Max_cycle;Signal;HPM_P1;HPM_P2
2021/06/13 00:00:49;;;;;;;2.33;1.03;;;14.00;99.90;;;;;;5093997;28;20198;-75
2021/06/13 00:03:16;;;;;;;1.73;1.20;;;14.10;99.90;;;;;;5093473;28;20607;-69
2021/06/13 00:05:43;;;;;;;4.40;1.00;;;14.30;99.90;;;;;;5087178;28;20197;-73
2021/06/13 00:08:11;;;;;;;3.10;1.20;;;14.30;99.90;;;;;;5093758;28;20178;-71
2021/06/13 00:10:38;;;;;;;3.33;1.47;;;14.40;99.90;;;;;;5093415;28;20178;-70
2021/06/13 00:13:05;;;;;;;3.40;1.33;;;14.50;99.90;;;;;;5090856;28;20556;-72
2021/06/13 00:15:33;;;;;;;1.37;1.00;;;14.60;99.90;;;;;;5090099;28;20243;-72
2021/06/13 00:18:00;;;;;;;5.33;1.37;;;14.60;99.90;;;;;;5093369;28;20218;-73
2021/06/13 00:20:31;;;;;;;16.23;10.53;;;14.70;99.50;;;;;;5090745;28;20183;-72
2021/06/13 00:22:59;;;;;;;2.57;1.20;;;14.80;99.80;;;;;;5099572;28;20174;-71
2021/06/13 00:25:26;;;;;;;5.00;1.07;;;14.90;98.80;;;;;;5113734;28;20178;-73
2021/06/13 00:27:54;;;;;;;3.13;1.17;;;15.00;98.80;;;;;;5094278;28;20189;-71
2021/06/13 00:30:22;;;;;;;2.53;1.33;;;15.00;98.70;;;;;;5092512;28;20223;-75
2021/06/13 00:32:49;;;;;;;3.13;1.20;;;15.20;98.10;;;;;;5092241;28;20685;-72
2021/06/13 00:35:18;;;;;;;1.90;1.00;;;15.30;97.70;;;;;;5091616;28;20182;-76
2021/06/13 00:37:46;;;;;;;3.13;0.97;;;15.40;97.40;;;;;;5092775;28;20237;-74
2021/06/13 00:40:14;;;;;;;1.10;0.87;;;15.40;97.40;;;;;;5094185;28;20228;-75
2021/06/13 00:42:43;;;;;;;1.70;1.10;;;15.50;97.40;;;;;;5092986;28;20174;-70
2021/06/13 00:45:13;;;;;;;1.97;1.00;;;15.50;96.90;;;;;;5092175;28;20198;-72
2021/06/13 00:47:40;;;;;;;3.57;1.20;;;15.60;97.60;;;;;;5092615;28;20580;-72
2021/06/13 00:50:12;;;;;;;1.03;0.90;;;15.70;97.20;;;;;;5091588;28;20602;-75
2021/06/13 00:52:40;;;;;;;2.43;1.03;;;15.70;96.90;;;;;;5092797;28;20174;-78
2021/06/13 00:55:08;;;;;;;2.83;1.00;;;15.70;96.70;;;;;;5093276;28;20175;-75
2021/06/13 00:57:36;;;;;;;2.13;1.00;;;15.90;96.90;;;;;;5092314;28;20213;-72
2021/06/13 01:00:07;;;;;;;2.87;1.10;;;16.00;96.70;;;;;;5092797;28;20257;-70
2021/06/13 01:02:35;;;;;;;1.03;1.00;;;15.90;96.40;;;;;;5091358;28;20700;-71
2021/06/13 01:05:03;;;;;;;2.27;1.10;;;15.90;96.20;;;;;;5092144;28;20171;-71
2021/06/13 01:07:54;;;;;;;2.37;0.97;;;15.90;96.30;;;;;;5084222;28;20206;-71
2021/06/13 01:10:49;;;;;;;3.03;0.80;;;15.90;96.00;;;;;;5092263;28;20178;-75
2021/06/13 01:13:40;;;;;;;1.47;1.03;;;16.10;96.20;;;;;;5092113;28;20224;-74
2021/06/13 01:16:13;;;;;;;1.70;1.20;;;16.40;96.40;;;;;;5092247;28;20575;-73
2021/06/13 01:18:51;;;;;;;2.37;1.00;;;16.60;96.00;;;;;;5091648;28;20304;-72
2021/06/13 01:21:23;;;;;;;1.67;1.10;;;16.60;95.20;;;;;;5090812;28;20177;-72
2021/06/13 01:24:08;;;;;;;2.87;1.17;;;16.70;95.30;;;;;;5092781;28;20178;-71
2021/06/13 01:27:00;;;;;;;2.10;1.03;;;16.70;95.20;;;;;;5091879;28;20198;-75
2021/06/13 01:29:35;;;;;;;1.57;0.80;;;16.80;95.00;;;;;;5085096;28;20273;-71
2021/06/13 01:32:16;;;;;;;5.13;1.10;;;16.70;95.00;;;;;;5092009;28;20609;-71
2021/06/13 01:34:57;;;;;;;2.60;1.20;;;16.70;94.60;;;;;;5085104;28;20255;-69
2021/06/13 01:37:29;;;;;;;4.10;1.00;;;16.50;94.70;;;;;;5086085;28;20178;-72
2021/06/13 01:40:07;;;;;;;2.53;1.30;;;16.80;94.80;;;;;;5089133;28;20463;-72
2021/06/13 01:42:35;;;;;;;2.13;1.20;;;16.90;94.40;;;;;;5090828;28;20230;-71
2021/06/13 01:45:07;;;;;;;3.13;1.00;;;16.90;94.30;;;;;;5092299;28;20294;-72
2021/06/13 01:47:36;;;;;;;2.53;1.30;;;17.00;94.20;;;;;;5092138;28;20184;-70
2021/06/13 01:50:06;;;;;;;3.43;1.63;;;17.00;94.20;;;;;;5092543;28;20246;-69
2021/06/13 01:52:35;;;;;;;2.67;1.23;;;17.20;94.40;;;;;;5092158;28;20170;-69
2021/06/13 01:55:04;;;;;;;3.17;1.70;;;17.10;93.80;;;;;;5092286;28;20204;-68
2021/06/13 01:57:33;;;;;;;2.30;1.57;;;17.20;94.20;;;;;;5090696;28;20213;-70
2021/06/13 02:00:01;;;;;;;2.73;1.30;;;17.40;93.90;;;;;;5092582;28;20178;-69
2021/06/13 02:02:29;;;;;;;3.70;1.70;;;17.60;94.00;;;;;;5092150;28;20227;-70
2021/06/13 02:04:56;;;;;;;2.03;1.40;;;17.70;93.90;;;;;;5092385;28;20238;-72
2021/06/13 02:07:25;;;;;;;3.00;1.90;;;17.70;93.70;;;;;;5081699;28;20186;-72
2021/06/13 02:09:53;;;;;;;4.93;1.70;;;17.80;93.40;;;;;;5092180;28;20621;-71
2021/06/13 02:12:20;;;;;;;2.40;1.77;;;18.00;93.50;;;;;;5091302;28;20186;-69
2021/06/13 02:14:49;;;;;;;3.73;1.90;;;18.00;92.90;;;;;;5091711;28;20182;-71
2021/06/13 02:17:17;;;;;;;4.30;2.00;;;18.00;93.00;;;;;;5091374;28;20178;-72
2021/06/13 02:19:46;;;;;;;2.87;1.80;;;18.00;93.20;;;;;;5091883;28;20167;-69
2021/06/13 02:22:14;;;;;;;3.57;1.70;;;18.40;93.00;;;;;;5084644;28;20217;-72
2021/06/13 02:24:43;;;;;;;2.60;1.60;;;18.50;92.30;;;;;;5086255;28;20184;-68
2021/06/13 02:27:15;;;;;;;2.00;1.40;;;18.30;92.30;;;;;;5071978;28;20313;-70
2021/06/13 02:29:44;;;;;;;3.67;1.60;;;18.00;92.20;;;;;;5090980;28;20645;-72
2021/06/13 02:32:14;;;;;;;2.87;1.80;;;18.00;92.40;;;;;;5091557;28;20543;-68
2021/06/13 02:34:47;;;;;;;3.23;1.80;;;17.90;92.50;;;;;;5091790;28;20640;-68
2021/06/13 02:37:16;;;;;;;2.40;1.93;;;18.10;92.40;;;;;;5091832;28;20174;-71
2021/06/13 02:39:44;;;;;;;4.13;1.40;;;18.40;92.40;;;;;;5091302;28;20222;-71
2021/06/13 02:42:12;;;;;;;4.00;1.20;;;18.40;91.90;;;;;;5082128;28;20540;-68
2021/06/13 02:44:39;;;;;;;2.20;1.17;;;18.30;92.40;;;;;;5088966;28;20261;-69
2021/06/13 02:47:08;;;;;;;1.80;1.20;;;18.40;92.00;;;;;;5091790;28;20182;-68
2021/06/13 02:49:38;;;;;;;3.27;1.40;;;18.50;91.90;;;;;;5080575;28;20190;-75
2021/06/13 02:52:13;;;;;;;2.63;1.37;;;18.40;91.60;;;;;;5093438;28;20174;-70
2021/06/13 02:54:44;;;;;;;1.47;1.03;;;18.40;92.00;;;;;;5093171;28;20182;-70
2021/06/13 02:57:32;;;;;;;1.50;1.20;;;18.30;92.10;;;;;;5093525;28;20257;-68
2021/06/13 03:00:04;;;;;;;2.10;0.87;;;18.30;91.70;;;;;;5081325;28;20633;-73
2021/06/13 03:02:32;;;;;;;2.07;0.93;;;18.30;91.70;;;;;;5092487;28;20186;-68
2021/06/13 03:05:02;;;;;;;1.53;1.00;;;18.10;91.80;;;;;;5094308;28;20182;-72
2021/06/13 03:07:30;;;;;;;1.80;1.13;;;18.00;92.20;;;;;;5095148;28;20201;-70
2021/06/13 03:10:01;;;;;;;1.20;1.00;;;18.10;92.20;;;;;;5095256;28;20565;-70
2021/06/13 03:12:30;;;;;;;1.00;0.90;;;18.20;92.20;;;;;;5094296;28;20211;-72
2021/06/13 03:14:59;;;;;;;2.07;1.30;;;18.30;92.10;;;;;;5094751;28;20535;-70
2021/06/13 03:17:28;;;;;;;3.13;1.00;;;18.40;91.90;;;;;;5094659;28;20210;-70
2021/06/13 03:19:56;;;;;;;1.37;0.90;;;18.40;92.10;;;;;;5057055;28;20221;-70
2021/06/13 03:22:24;;;;;;;1.73;1.00;;;18.30;92.00;;;;;;5093840;28;20303;-73
2021/06/13 03:24:53;;;;;;;1.13;1.00;;;18.40;91.90;;;;;;5099940;28;20663;-73
2021/06/13 03:27:21;;;;;;;1.90;1.10;;;18.70;91.90;;;;;;5095174;28;20188;-75
2021/06/13 03:29:51;;;;;;;1.10;0.90;;;18.90;91.70;;;;;;5094732;28;20187;-72
2021/06/13 03:32:18;;;;;;;1.27;0.90;;;19.10;91.70;;;;;;5094146;28;20540;-74
2021/06/13 03:34:47;;;;;;;2.60;0.90;;;19.20;90.60;;;;;;5094103;28;20265;-68
2021/06/13 03:37:15;;;;;;;1.70;0.70;;;19.50;90.40;;;;;;5094076;28;20178;-72
2021/06/13 03:39:45;;;;;;;1.37;0.80;;;19.90;89.60;;;;;;5094840;28;20174;-73
2021/06/13 03:42:15;;;;;;;1.70;1.10;;;20.10;88.20;;;;;;5093866;28;20258;-68
2021/06/13 03:44:44;;;;;;;1.77;0.80;;;20.00;87.10;;;;;;5094489;28;20178;-69
2021/06/13 03:47:12;;;;;;;8.73;1.60;;;20.10;88.20;;;;;;5094058;28;20179;-68
2021/06/13 03:49:41;;;;;;;0.90;0.70;;;20.30;85.80;;;;;;5093711;28;20171;-70
2021/06/13 03:52:08;;;;;;;1.43;0.90;;;20.20;84.70;;;;;;5092844;28;20179;-71
2021/06/13 03:54:37;;;;;;;1.97;0.80;;;19.80;84.90;;;;;;5093533;28;20577;-69
2021/06/13 03:57:06;;;;;;;3.97;1.00;;;20.10;85.40;;;;;;5078951;28;20185;-74
2021/06/13 03:59:36;;;;;;;0.80;0.70;;;20.50;83.80;;;;;;5081451;28;20209;-68
2021/06/13 04:02:06;;;;;;;1.10;0.90;;;20.50;82.90;;;;;;5089558;28;20174;-70
2021/06/13 04:04:42;;;;;;;1.67;0.70;;;20.30;82.80;;;;;;5093752;28;20632;-67
2021/06/13 04:07:11;;;;;;;2.37;0.70;;;20.50;82.30;;;;;;5093890;28;20185;-69
2021/06/13 04:09:39;;;;;;;0.97;0.70;;;20.60;81.50;;;;;;5093957;28;20661;-70
2021/06/13 04:12:09;;;;;;;1.80;0.77;;;20.70;81.80;;;;;;5093606;28;20177;-68
2021/06/13 04:14:36;;;;;;;1.40;0.80;;;20.90;80.30;;;;;;5093118;28;20187;-68
2021/06/13 04:17:04;;;;;;;0.90;0.60;;;20.80;80.50;;;;;;5093752;28;20182;-68
2021/06/13 04:19:32;;;;;;;0.50;0.50;;;20.60;80.40;;;;;;5109813;28;20213;-70
2021/06/13 04:22:01;;;;;;;1.53;0.87;;;20.90;79.40;;;;;;5087392;28;20532;-70
2021/06/13 04:24:29;;;;;;;0.70;0.60;;;20.90;79.20;;;;;;5091733;28;20190;-72
2021/06/13 04:26:59;;;;;;;0.70;0.50;;;20.60;80.60;;;;;;5092881;28;20742;-68
2021/06/13 04:29:26;;;;;;;0.77;0.70;;;20.50;80.30;;;;;;5092992;28;20179;-69
2021/06/13 04:31:54;;;;;;;0.83;0.70;;;20.90;79.70;;;;;;5093620;28;20209;-70
2021/06/13 04:34:21;;;;;;;0.57;0.57;;;21.00;78.60;;;;;;5092597;28;20249;-70
2021/06/13 04:36:48;;;;;;;3.07;1.00;;;20.90;78.70;;;;;;5092877;28;20186;-72
2021/06/13 04:39:16;;;;;;;0.80;0.50;;;21.00;78.20;;;;;;5092521;28;20700;-68
2021/06/13 04:41:44;;;;;;;1.23;0.70;;;20.80;78.50;;;;;;5090497;28;20208;-74
2021/06/13 04:44:11;;;;;;;4.67;0.80;;;21.00;78.00;;;;;;5087452;28;20277;-68
2021/06/13 04:46:38;;;;;;;1.20;0.60;;;21.10;77.60;;;;;;5078836;28;20186;-67
2021/06/13 04:49:06;;;;;;;1.70;0.90;;;21.00;78.20;;;;;;5092264;28;20178;-68
2021/06/13 04:51:36;;;;;;;1.70;1.10;;;21.50;77.30;;;;;;5082320;28;20178;-69
2021/06/13 04:54:10;;;;;;;2.60;0.80;;;22.10;75.50;;;;;;5092446;28;20175;-67
2021/06/13 04:56:53;;;;;;;1.67;0.70;;;22.10;75.60;;;;;;5090931;28;20182;-67
2021/06/13 04:59:20;;;;;;;1.07;0.70;;;21.90;75.60;;;;;;5118653;27;20222;-67
2021/06/13 05:01:48;;;;;;;1.30;0.63;;;22.10;75.10;;;;;;5082275;28;20182;-69
2021/06/13 05:04:16;;;;;;;1.20;0.60;;;22.50;75.10;;;;;;5090848;28;20174;-69
2021/06/13 05:06:45;;;;;;;1.70;0.80;;;22.50;73.90;;;;;;5092915;28;20182;-70
2021/06/13 05:09:13;;;;;;;0.90;0.50;;;22.80;72.90;;;;;;5092749;28;20163;-69
2021/06/13 05:11:40;;;;;;;0.80;0.60;;;22.60;72.50;;;;;;5092276;28;20225;-68
2021/06/13 05:14:08;;;;;;;1.33;0.63;;;21.90;73.70;;;;;;5092751;28;20179;-71
2021/06/13 05:16:38;;;;;;;1.97;0.80;;;21.40;74.70;;;;;;5091345;28;20187;-68
2021/06/13 05:19:05;;;;;;;1.80;0.70;;;21.30;75.20;;;;;;5092396;28;20230;-68
2021/06/13 05:21:33;;;;;;;1.27;0.80;;;21.80;74.40;;;;;;5092771;28;20159;-70
2021/06/13 05:24:01;;;;;;;1.23;0.70;;;22.40;74.20;;;;;;5093025;28;20265;-67
2021/06/13 05:26:29;;;;;;;1.33;0.80;;;22.20;73.70;;;;;;5092919;28;20175;-73
2021/06/13 05:28:57;;;;;;;2.63;0.73;;;21.90;73.60;;;;;;5092854;28;20186;-75
2021/06/13 05:31:25;;;;;;;1.60;0.73;;;21.80;74.00;;;;;;5093416;28;20179;-69
2021/06/13 05:33:53;;;;;;;2.73;0.60;;;21.60;73.60;;;;;;5091435;28;20230;-69
2021/06/13 05:36:21;;;;;;;1.40;0.77;;;21.00;74.30;;;;;;5092252;28;20210;-72
2021/06/13 05:38:48;;;;;;;0.73;0.60;;;20.80;75.00;;;;;;5093094;28;20209;-70
2021/06/13 05:41:16;;;;;;;1.50;0.73;;;20.80;75.40;;;;;;5092796;28;20174;-70
2021/06/13 05:43:48;;;;;;;1.03;0.60;;;21.00;75.00;;;;;;5092906;28;20303;-72
2021/06/13 05:46:17;;;;;;;1.70;0.77;;;21.40;74.20;;;;;;5091464;28;20604;-67
2021/06/13 05:48:45;;;;;;;2.93;0.70;;;21.30;74.00;;;;;;5091851;28;20187;-68
2021/06/13 05:51:13;;;;;;;1.37;0.60;;;21.50;74.00;;;;;;5093552;28;20175;-69
2021/06/13 05:53:41;;;;;;;1.80;0.80;;;21.30;74.20;;;;;;5092005;28;20186;-68
2021/06/13 05:56:09;;;;;;;3.03;0.70;;;21.00;74.70;;;;;;5093009;28;20564;-67
2021/06/13 05:58:36;;;;;;;2.57;0.60;;;20.80;75.10;;;;;;5092957;28;20203;-69
2021/06/13 06:01:04;;;;;;;1.60;0.73;;;20.70;75.20;;;;;;5092939;28;20223;-68
2021/06/13 06:03:31;;;;;;;1.10;0.70;;;20.70;74.80;;;;;;5093103;28;20179;-69
2021/06/13 06:05:59;;;;;;;0.60;0.60;;;20.70;75.40;;;;;;5093046;28;20206;-71
2021/06/13 06:08:27;;;;;;;1.20;0.77;;;20.40;76.00;;;;;;5089614;28;20645;-71
2021/06/13 06:10:55;;;;;;;1.17;0.60;;;19.70;77.10;;;;;;5092217;28;20174;-72
2021/06/13 06:13:22;;;;;;;1.10;0.60;;;19.40;78.30;;;;;;5092398;28;20186;-71
2021/06/13 06:15:50;;;;;;;1.23;0.70;;;18.90;79.30;;;;;;5092849;28;20178;-71
2021/06/13 06:18:17;;;;;;;1.00;0.70;;;18.70;80.20;;;;;;5092104;28;20206;-68
2021/06/13 06:20:45;;;;;;;2.10;1.20;;;18.60;81.40;;;;;;5092656;28;20171;-72
2021/06/13 06:23:12;;;;;;;1.23;0.70;;;18.60;81.70;;;;;;5087662;28;20177;-71
2021/06/13 06:25:40;;;;;;;4.13;0.90;;;18.40;81.40;;;;;;5096591;28;20179;-72
2021/06/13 06:28:07;;;;;;;0.97;0.90;;;18.40;82.00;;;;;;5096393;28;20171;-74
2021/06/13 06:30:34;;;;;;;1.63;1.00;;;18.30;82.60;;;;;;5095836;28;20580;-68
2021/06/13 06:33:02;;;;;;;1.37;0.70;;;17.90;82.70;;;;;;5095841;28;20221;-69
2021/06/13 06:35:29;;;;;;;1.30;0.80;;;17.60;83.50;;;;;;5096229;28;20175;-70
2021/06/13 06:37:56;;;;;;;1.10;0.90;;;17.40;84.40;;;;;;5096246;28;20213;-68
2021/06/13 06:40:24;;;;;;;2.83;1.00;;;17.30;85.30;;;;;;5095773;28;20266;-66
2021/06/13 06:42:52;;;;;;;1.70;1.00;;;17.30;86.20;;;;;;5095981;28;20174;-69
2021/06/13 06:45:20;;;;;;;3.43;1.17;;;17.20;86.70;;;;;;5095843;28;20269;-68
2021/06/13 06:47:47;;;;;;;3.00;1.50;;;17.10;87.60;;;;;;5095971;28;20206;-70
2021/06/13 06:50:16;;;;;;;3.13;1.20;;;17.00;88.60;;;;;;5095765;28;20726;-72
2021/06/13 06:52:44;;;;;;;3.57;1.70;;;16.90;89.40;;;;;;5095570;28;20170;-68
2021/06/13 06:55:14;;;;;;;2.27;1.80;;;16.80;90.20;;;;;;5094114;28;20177;-69
2021/06/13 06:57:45;;;;;;;2.03;1.30;;;16.80;90.50;;;;;;5095503;28;20198;-70
2021/06/13 07:00:14;;;;;;;2.50;1.73;;;16.70;91.20;;;;;;5095692;28;20167;-69
2021/06/13 07:02:41;;;;;;;3.63;1.77;;;16.60;91.30;;;;;;5095633;28;20187;-67
2021/06/13 07:05:10;;;;;;;3.70;1.80;;;16.50;91.70;;;;;;5095420;28;20181;-72
2021/06/13 07:07:38;;;;;;;5.00;1.90;;;16.40;92.00;;;;;;5094348;28;20174;-66
2021/06/13 07:10:07;;;;;;;4.03;2.27;;;16.30;92.60;;;;;;5095247;28;20174;-68
2021/06/13 07:12:37;;;;;;;3.57;2.67;;;16.20;92.80;;;;;;5095056;28;20189;-70
2021/06/13 07:15:08;;;;;;;5.33;3.40;;;16.10;93.30;;;;;;5095437;28;20184;-70
2021/06/13 07:17:37;;;;;;;4.63;3.10;;;16.10;93.70;;;;;;5095128;28;20199;-70
2021/06/13 07:20:09;;;;;;;3.93;2.60;;;15.90;94.10;;;;;;5095123;28;20623;-74
2021/06/13 07:22:36;;;;;;;6.23;3.27;;;15.90;93.50;;;;;;5095171;28;20170;-71
2021/06/13 07:25:06;;;;;;;5.07;3.13;;;15.80;93.90;;;;;;5093679;28;20537;-72
2021/06/13 07:27:35;;;;;;;3.97;2.73;;;15.80;94.20;;;;;;5094063;28;20334;-69
2021/06/13 07:30:06;;;;;;;5.23;3.00;;;15.80;94.10;;;;;;5094641;28;20181;-71
2021/06/13 07:32:33;;;;;;;5.00;2.70;;;15.80;93.80;;;;;;5094240;28;20219;-69
2021/06/13 07:35:01;;;;;;;4.27;2.30;;;15.80;93.80;;;;;;5094756;28;20212;-71
2021/06/13 07:37:28;;;;;;;2.97;2.13;;;15.80;93.90;;;;;;5095005;28;20535;-69
2021/06/13 07:39:55;;;;;;;4.70;2.37;;;15.80;94.00;;;;;;5094828;28;20182;-72
2021/06/13 07:42:23;;;;;;;4.00;2.23;;;15.80;94.30;;;;;;5094620;28;20179;-73
2021/06/13 07:44:51;;;;;;;4.63;3.03;;;15.80;94.10;;;;;;5095109;28;20184;-71
2021/06/13 07:47:19;;;;;;;4.67;2.50;;;15.80;94.20;;;;;;5094722;28;20181;-68
2021/06/13 07:49:47;;;;;;;3.97;2.60;;;15.70;94.30;;;;;;5095033;28;20498;-71
2021/06/13 07:52:14;;;;;;;6.27;2.60;;;15.70;94.40;;;;;;5094475;28;20263;-69
2021/06/13 07:54:41;;;;;;;5.07;3.03;;;15.70;94.70;;;;;;5094182;28;20188;-70
2021/06/13 07:57:09;;;;;;;8.43;3.67;;;15.60;94.50;;;;;;5094391;28;20171;-70
2021/06/13 07:59:37;;;;;;;8.37;4.10;;;15.50;94.80;;;;;;5094154;28;20211;-69
2021/06/13 08:02:05;;;;;;;5.93;3.70;;;15.40;95.00;;;;;;5094274;28;20217;-70
2021/06/13 08:04:37;;;;;;;11.00;4.83;;;15.40;95.10;;;;;;5094487;28;20186;-72
2021/06/13 08:07:05;;;;;;;7.57;4.37;;;15.30;95.40;;;;;;5094340;28;20185;-74
2021/06/13 08:09:33;;;;;;;7.13;3.93;;;15.20;95.60;;;;;;5086419;28;20180;-71
2021/06/13 08:12:00;;;;;;;7.77;3.87;;;15.10;95.70;;;;;;5077067;28;20167;-74
2021/06/13 08:14:28;;;;;;;8.43;4.27;;;15.00;96.10;;;;;;5093386;28;20611;-69
2021/06/13 08:16:55;;;;;;;10.37;3.77;;;15.00;96.30;;;;;;5094075;28;20216;-71
2021/06/13 08:19:24;;;;;;;4.27;3.40;;;14.90;96.40;;;;;;5094245;28;20210;-73
2021/06/13 08:21:52;;;;;;;5.73;3.43;;;14.80;96.50;;;;;;5094151;28;20169;-67
2021/06/13 08:24:19;;;;;;;5.93;2.90;;;14.80;96.70;;;;;;5086761;28;20312;-72
2021/06/13 08:26:47;;;;;;;4.20;2.87;;;14.70;96.40;;;;;;5091698;28;20543;-68
2021/06/13 08:29:15;;;;;;;6.27;3.30;;;14.70;96.60;;;;;;5093674;28;20243;-72
2021/06/13 08:31:43;;;;;;;6.30;2.73;;;14.70;96.80;;;;;;5093592;28;20291;-73
2021/06/13 08:34:10;;;;;;;4.83;2.67;;;14.70;96.70;;;;;;5094009;28;20230;-71
2021/06/13 08:36:37;;;;;;;3.97;3.03;;;14.60;96.80;;;;;;5093390;28;20178;-68
2021/06/13 08:39:05;;;;;;;4.83;2.93;;;14.60;96.80;;;;;;5093293;28;20206;-68
2021/06/13 08:41:32;;;;;;;3.83;2.90;;;14.50;96.60;;;;;;5092979;28;20185;-70
2021/06/13 08:44:01;;;;;;;5.90;2.63;;;14.60;96.60;;;;;;5093624;28;20281;-70
2021/06/13 08:46:29;;;;;;;4.63;2.70;;;14.50;96.20;;;;;;5090936;28;20643;-69
2021/06/13 08:48:57;;;;;;;6.47;2.73;;;14.50;96.40;;;;;;5093474;28;20175;-68
2021/06/13 08:51:24;;;;;;;5.13;2.70;;;14.50;96.60;;;;;;5093103;28;20170;-72
2021/06/13 08:53:52;;;;;;;3.97;2.53;;;14.50;96.60;;;;;;5093452;28;20259;-70
2021/06/13 08:56:21;;;;;;;4.50;2.73;;;14.40;96.40;;;;;;5092979;28;20647;-73
2021/06/13 08:58:49;;;;;;;4.87;3.03;;;14.40;96.60;;;;;;5093502;28;20214;-71
2021/06/13 09:01:16;;;;;;;6.87;3.23;;;14.40;96.50;;;;;;5093604;28;20198;-70
2021/06/13 09:03:44;;;;;;;6.27;3.60;;;14.30;96.60;;;;;;5092688;28;20174;-69
2021/06/13 09:06:12;;;;;;;5.87;3.87;;;14.30;96.60;;;;;;5093546;28;20167;-73
2021/06/13 09:08:42;;;;;;;8.73;3.50;;;14.30;96.90;;;;;;5093598;28;20182;-75
2021/06/13 09:11:23;;;;;;;5.60;2.83;;;14.20;97.10;;;;;;5093647;28;20218;-72
2021/06/13 09:13:50;;;;;;;5.00;3.10;;;14.10;97.40;;;;;;5091586;28;20591;-75
2021/06/13 09:16:26;;;;;;;4.87;2.47;;;14.00;97.70;;;;;;5092998;28;20204;-76
2021/06/13 09:18:53;;;;;;;7.43;2.90;;;13.90;98.00;;;;;;5092065;28;20220;-70
2021/06/13 09:21:22;;;;;;;4.60;3.30;;;13.90;98.40;;;;;;5093451;28;20198;-71
2021/06/13 09:23:50;;;;;;;5.10;3.60;;;13.80;98.50;;;;;;5092624;28;20179;-71
2021/06/13 09:26:19;;;;;;;6.70;4.13;;;13.80;98.70;;;;;;5092885;28;20200;-71
2021/06/13 09:28:52;;;;;;;6.17;3.77;;;13.80;99.10;;;;;;5093042;28;20186;-68
2021/06/13 09:31:28;;;;;;;7.73;5.20;;;13.60;99.30;;;;;;5092851;28;20579;-69
2021/06/13 09:34:00;;;;;;;5.20;3.70;;;13.60;99.60;;;;;;5092806;28;20252;-70
2021/06/13 09:36:31;;;;;;;4.87;3.30;;;13.50;99.80;;;;;;5088029;28;20180;-70
2021/06/13 09:39:05;;;;;;;9.80;3.43;;;13.50;99.90;;;;;;5091921;28;20215;-70
2021/06/13 09:41:35;;;;;;;6.03;3.43;;;13.50;99.90;;;;;;5091644;28;20204;-73
2021/06/13 09:44:04;;;;;;;7.27;4.10;;;13.50;99.70;;;;;;5091719;28;20183;-74
2021/06/13 09:46:34;;;;;;;4.67;3.47;;;13.40;99.90;;;;;;5092605;28;20189;-69
2021/06/13 09:49:10;;;;;;;4.87;3.20;;;13.40;99.90;;;;;;5092822;28;20183;-74
2021/06/13 09:51:43;;;;;;;5.37;3.83;;;13.40;99.90;;;;;;5093538;28;20174;-72
2021/06/13 09:54:17;;;;;;;5.43;4.00;;;13.40;99.90;;;;;;5091114;28;20189;-73
2021/06/13 09:56:45;;;;;;;5.00;3.07;;;13.30;99.90;;;;;;5095357;28;20249;-75
2021/06/13 09:59:25;;;;;;;6.13;3.23;;;13.30;99.90;;;;;;5097482;28;20315;-75
2021/06/13 10:01:59;;;;;;;5.10;3.37;;;13.20;99.90;;;;;;5098181;28;20178;-75
2021/06/13 10:04:29;;;;;;;5.83;3.47;;;13.10;99.90;;;;;;5095926;28;20663;-78
2021/06/13 10:07:02;;;;;;;5.60;3.83;;;13.10;99.90;;;;;;5096177;28;20182;-77
2021/06/13 10:09:41;;;;;;;5.30;3.80;;;13.10;99.90;;;;;;5095320;28;20633;-78
2021/06/13 10:12:11;;;;;;;5.13;3.53;;;13.10;99.90;;;;;;5096514;28;20193;-75
2021/06/13 10:14:39;;;;;;;5.83;3.77;;;13.10;99.90;;;;;;5096908;28;20183;-75
2021/06/13 10:17:07;;;;;;;6.97;4.27;;;13.10;99.90;;;;;;5097113;28;20179;-76
2021/06/13 10:19:41;;;;;;;7.40;4.20;;;13.00;99.90;;;;;;5096530;28;20346;-74
2021/06/13 10:22:09;;;;;;;9.60;5.50;;;13.00;99.90;;;;;;5095552;28;20605;-74
2021/06/13 10:24:39;;;;;;;8.43;5.33;;;13.00;99.90;;;;;;5092747;28;20195;-73
2021/06/13 10:27:13;;;;;;;9.90;6.90;;;12.90;99.90;;;;;;5095328;28;20175;-69
2021/06/13 10:29:46;;;;;;;6.80;4.37;;;12.80;99.90;;;;;;5095604;28;20246;-72
2021/06/13 10:32:17;;;;;;;7.00;3.33;;;12.80;99.90;;;;;;5096354;28;20653;-69
2021/06/13 10:34:46;;;;;;;6.30;3.30;;;12.70;99.90;;;;;;5096665;28;20190;-72
2021/06/13 10:37:14;;;;;;;6.73;3.40;;;12.70;99.90;;;;;;5095414;28;20178;-70
2021/06/13 10:39:42;;;;;;;4.37;2.93;;;12.60;99.90;;;;;;5095568;28;20300;-71
2021/06/13 10:42:14;;;;;;;5.30;3.57;;;12.60;99.90;;;;;;5095359;28;20271;-71
2021/06/13 10:44:52;;;;;;;4.60;3.40;;;12.50;99.90;;;;;;5095694;28;20178;-71
2021/06/13 10:47:22;;;;;;;3.63;3.27;;;12.40;99.90;;;;;;5082904;28;20197;-68
2021/06/13 10:50:03;;;;;;;6.10;3.50;;;12.40;99.90;;;;;;5095258;28;20174;-70
2021/06/13 10:52:33;;;;;;;7.20;3.87;;;12.30;99.90;;;;;;5094992;28;20183;-70
2021/06/13 10:55:04;;;;;;;6.53;4.53;;;12.30;99.90;;;;;;5095240;28;20182;-69
2021/06/13 10:57:45;;;;;;;6.80;3.57;;;12.30;99.90;;;;;;5095171;28;20193;-70
2021/06/13 11:00:21;;;;;;;7.97;4.23;;;12.20;99.90;;;;;;5095637;28;20178;-74
2021/06/13 11:02:57;;;;;;;5.67;3.37;;;12.20;99.90;;;;;;5095834;28;20178;-68
2021/06/13 11:05:38;;;;;;;6.27;3.80;;;12.20;99.90;;;;;;5095742;28;20648;-73
2021/06/13 11:08:06;;;;;;;7.53;3.30;;;12.30;99.90;;;;;;5094164;28;20178;-72
2021/06/13 11:10:33;;;;;;;7.07;3.50;;;12.30;99.90;;;;;;5095011;28;20189;-72
2021/06/13 11:13:10;;;;;;;6.53;3.60;;;12.30;99.90;;;;;;5084006;28;20190;-70
2021/06/13 11:15:42;;;;;;;6.27;3.60;;;12.30;99.90;;;;;;5094360;28;20338;-67
2021/06/13 11:18:20;;;;;;;5.47;3.73;;;12.20;99.90;;;;;;5095352;28;20217;-66
2021/06/13 11:21:16;;;;;;;7.77;3.77;;;12.20;99.90;;;;;;5094752;28;20181;-71
2021/06/13 11:23:44;;;;;;;4.83;3.47;;;12.10;99.90;;;;;;5094371;28;20198;-69
2021/06/13 11:26:32;;;;;;;6.43;3.67;;;12.10;99.90;;;;;;5094723;28;20186;-70
2021/06/13 11:29:00;;;;;;;4.27;3.20;;;12.10;99.90;;;;;;5093849;28;20225;-69
2021/06/13 11:31:28;;;;;;;6.33;3.60;;;12.00;99.90;;;;;;5092123;28;20213;-66
2021/06/13 11:33:56;;;;;;;7.53;3.60;;;12.00;99.90;;;;;;5094170;28;20229;-74
2021/06/13 11:36:31;;;;;;;6.23;3.77;;;12.00;99.90;;;;;;5089535;28;20269;-72
2021/06/13 11:39:04;;;;;;;4.10;2.83;;;11.90;99.90;;;;;;5094168;28;20249;-72
2021/06/13 11:41:42;;;;;;;4.60;3.37;;;11.90;99.90;;;;;;5092599;28;20183;-69
2021/06/13 11:44:22;;;;;;;6.00;2.73;;;11.90;99.90;;;;;;5094032;28;20190;-72
2021/06/13 11:46:52;;;;;;;4.70;2.57;;;11.80;99.90;;;;;;5094738;28;20174;-69
2021/06/13 11:49:22;;;;;;;4.07;2.53;;;11.80;99.90;;;;;;5093955;28;20206;-70
2021/06/13 11:52:02;;;;;;;4.77;2.50;;;11.80;99.90;;;;;;5093872;28;20269;-69
2021/06/13 11:54:43;;;;;;;3.77;2.40;;;11.80;99.90;;;;;;5093992;28;20238;-72
2021/06/13 11:57:13;;;;;;;2.53;2.00;;;11.70;99.90;;;;;;5094517;28;20189;-76
2021/06/13 11:59:46;;;;;;;2.30;2.07;;;11.70;99.90;;;;;;5093849;28;20227;-73
2021/06/13 12:02:18;;;;;;;5.40;2.17;;;11.70;99.90;;;;;;5094188;28;20178;-75
2021/06/13 12:04:46;;;;;;;3.97;2.77;;;11.70;99.90;;;;;;5093884;28;20213;-74
2021/06/13 12:07:17;;;;;;;3.90;2.60;;;11.70;99.90;;;;;;5093413;28;20651;-74
2021/06/13 12:09:49;;;;;;;4.73;2.70;;;11.70;99.90;;;;;;5094156;28;20178;-78
2021/06/13 12:12:21;;;;;;;5.40;3.20;;;11.60;99.90;;;;;;5091713;28;20232;-71
2021/06/13 12:14:49;;;;;;;6.50;3.03;;;11.60;99.90;;;;;;5093965;28;20181;-67
2021/06/13 12:17:23;;;;;;;6.53;3.67;;;11.50;99.90;;;;;;5093227;28;20544;-67
2021/06/13 12:20:02;;;;;;;4.63;3.23;;;11.50;99.90;;;;;;5093598;28;20294;-72
2021/06/13 12:22:46;;;;;;;4.90;3.53;;;11.50;99.90;;;;;;5093033;28;22426;-65
2021/06/13 12:27:52;;;;;;;5.20;3.97;;;11.50;99.90;;;;;;5093614;28;20175;-67
2021/06/13 12:30:23;;;;;;;7.00;4.10;;;11.40;99.90;;;;;;5092697;28;20197;-68
2021/06/13 12:33:10;;;;;;;8.87;4.43;;;11.30;99.90;;;;;;5093044;28;20245;-71
2021/06/13 12:35:41;;;;;;;7.93;4.33;;;11.30;99.90;;;;;;5093346;28;20193;-68
2021/06/13 12:38:16;;;;;;;9.97;3.83;;;11.30;99.90;;;;;;5092902;28;20602;-68
2021/06/13 12:40:50;;;;;;;10.80;4.30;;;11.30;99.90;;;;;;5093346;28;20243;-66
2021/06/13 12:43:35;;;;;;;6.13;3.87;;;11.40;99.90;;;;;;5093004;28;20201;-68
2021/06/13 12:46:06;;;;;;;7.67;4.37;;;11.30;99.90;;;;;;5087857;28;20175;-66
2021/06/13 12:48:34;;;;;;;6.73;3.50;;;11.30;99.90;;;;;;5084302;28;20186;-68
2021/06/13 12:51:01;;;;;;;5.53;3.70;;;11.30;99.90;;;;;;5092889;28;20189;-68
2021/06/13 12:53:34;;;;;;;7.57;3.57;;;11.30;99.90;;;;;;5092104;28;20194;-70
2021/06/13 12:56:03;;;;;;;7.97;4.30;;;11.20;99.90;;;;;;5092758;28;20182;-71
2021/06/13 12:58:40;;;;;;;8.97;4.20;;;11.20;99.90;;;;;;5092808;28;20210;-73
2021/06/13 13:01:09;;;;;;;6.90;4.63;;;11.20;99.90;;;;;;5092930;28;20205;-68
2021/06/13 13:03:46;;;;;;;7.50;4.00;;;11.10;99.90;;;;;;5092694;28;20657;-69